createdAt,value
2023-02-11T00:00:22.233Z,61.24
2023-02-11T00:02:48.879Z,60.55
2023-02-11T00:05:15.936Z,60.22
2023-02-11T00:07:42.645Z,60.52
2023-02-11T00:10:09.541Z,60.50
2023-02-11T00:12:37.562Z,60.86
2023-02-11T00:15:06.155Z,60.65
2023-02-11T00:17:32.867Z,60.44
2023-02-11T00:19:59.461Z,60.68
2023-02-11T00:22:26.323Z,60.58
2023-02-11T00:24:53.011Z,60.27
2023-02-11T00:27:19.701Z,60.33
2023-02-11T00:29:46.413Z,60.18
2023-02-11T00:32:13.086Z,60.05
2023-02-11T00:34:39.778Z,59.72
2023-02-11T00:37:06.802Z,59.69
2023-02-11T00:39:33.638Z,58.96
2023-02-11T00:42:00.466Z,58.94
2023-02-11T00:44:27.100Z,58.76
2023-02-11T00:46:53.722Z,58.80
2023-02-11T00:49:20.607Z,58.72
2023-02-11T00:51:48.535Z,58.25
2023-02-11T00:54:15.199Z,58.65
2023-02-11T00:56:42.074Z,58.63
2023-02-11T00:59:09.124Z,58.69
2023-02-11T01:01:35.948Z,58.89
2023-02-11T01:04:03.044Z,59.07
2023-02-11T01:06:29.741Z,59.69
2023-02-11T01:08:56.603Z,59.02
2023-02-11T01:11:23.313Z,59.27
2023-02-11T01:13:50.864Z,59.41
2023-02-11T01:16:19.385Z,58.92
2023-02-11T01:18:46.472Z,58.29
2023-02-11T01:21:13.241Z,58.21
2023-02-11T01:23:39.992Z,58.59
2023-02-11T01:26:06.773Z,59.12
2023-02-11T01:28:33.676Z,59.18
2023-02-11T01:31:02.241Z,59.30
2023-02-11T01:33:29.904Z,59.42
2023-02-11T01:36:00.922Z,59.52
2023-02-11T01:38:28.193Z,59.87
2023-02-11T01:41:03.218Z,59.70
2023-02-11T01:43:36.708Z,59.61
2023-02-11T01:46:35.035Z,59.72
2023-02-11T01:49:05.652Z,59.59
2023-02-11T01:51:59.824Z,59.98
2023-02-11T01:54:49.320Z,60.02
2023-02-11T01:57:22.807Z,59.89
2023-02-11T02:00:08.735Z,60.35
2023-02-11T02:02:50.411Z,60.35
2023-02-11T02:05:31.225Z,60.83
2023-02-11T02:08:29.721Z,60.79
2023-02-11T02:10:58.440Z,61.14
2023-02-11T02:13:25.954Z,60.49
2023-02-11T02:15:59.513Z,60.41
2023-02-11T02:18:54.256Z,60.02
2023-02-11T02:21:43.331Z,59.94
2023-02-11T02:24:31.503Z,59.59
2023-02-11T02:27:10.296Z,59.62
2023-02-11T02:29:49.082Z,59.45
2023-02-11T02:32:43.365Z,59.27
2023-02-11T02:35:15.037Z,58.78
2023-02-11T02:38:20.579Z,59.62
2023-02-11T02:40:53.492Z,59.05
2023-02-11T02:43:22.322Z,58.88
2023-02-11T02:45:49.266Z,59.03
2023-02-11T02:48:32.746Z,58.64
2023-02-11T02:51:25.288Z,58.11
2023-02-11T02:54:33.951Z,57.94
2023-02-11T02:57:25.503Z,58.04
2023-02-11T03:00:29.857Z,58.02
2023-02-11T03:03:13.184Z,57.76
2023-02-11T03:05:52.937Z,57.88
2023-02-11T03:08:42.938Z,58.13
2023-02-11T03:11:11.748Z,58.52
2023-02-11T03:13:40.507Z,58.47
2023-02-11T03:16:13.693Z,59.02
2023-02-11T03:18:44.748Z,58.62
2023-02-11T03:21:13.950Z,58.53
2023-02-11T03:23:48.128Z,58.27
2023-02-11T03:26:24.716Z,58.03
2023-02-11T03:29:12.503Z,58.12
2023-02-11T03:31:49.941Z,57.99
2023-02-11T03:34:29.852Z,58.01
2023-02-11T03:36:59.848Z,57.69
2023-02-11T03:39:33.025Z,57.54
2023-02-11T03:42:01.960Z,57.35
2023-02-11T03:44:35.560Z,57.26
2023-02-11T03:47:05.088Z,57.65
2023-02-11T03:49:33.355Z,57.32
2023-02-11T03:52:03.106Z,57.86
2023-02-11T03:54:30.805Z,58.36
2023-02-11T03:57:00.736Z,58.90
2023-02-11T03:59:28.180Z,58.63
2023-02-11T04:01:55.038Z,58.62
2023-02-11T04:04:21.959Z,58.64
2023-02-11T04:06:48.691Z,58.98
2023-02-11T04:09:16.395Z,58.88
2023-02-11T04:11:43.038Z,59.42
2023-02-11T04:14:09.623Z,59.57
2023-02-11T04:16:36.311Z,59.61
2023-02-11T04:19:03.209Z,59.45
2023-02-11T04:21:29.818Z,59.39
2023-02-11T04:23:56.446Z,59.59
2023-02-11T04:26:23.162Z,59.78
2023-02-11T04:28:49.787Z,59.29
2023-02-11T04:31:16.524Z,59.12
2023-02-11T04:33:43.206Z,58.50
2023-02-11T04:36:09.887Z,58.23
2023-02-11T04:38:36.513Z,57.92
2023-02-11T04:41:03.245Z,57.77
2023-02-11T04:43:29.975Z,57.50
2023-02-11T04:45:58.371Z,57.43
2023-02-11T04:48:25.570Z,57.02
2023-02-11T04:50:52.348Z,56.87
2023-02-11T04:53:19.026Z,56.65
2023-02-11T04:55:49.135Z,56.68
2023-02-11T04:58:16.717Z,57.03
2023-02-11T05:00:43.403Z,57.71
2023-02-11T05:03:10.134Z,57.86
2023-02-11T05:05:41.465Z,57.85
2023-02-11T05:08:11.033Z,58.33
2023-02-11T05:10:37.835Z,58.93
2023-02-11T05:13:04.890Z,58.73
2023-02-11T05:15:31.671Z,58.61
2023-02-11T05:17:58.551Z,58.60
2023-02-11T05:20:25.485Z,58.02
2023-02-11T05:22:52.537Z,58.65
2023-02-11T05:25:20.342Z,59.14
2023-02-11T05:27:46.948Z,59.21
2023-02-11T05:30:13.825Z,58.76
2023-02-11T05:32:40.572Z,58.42
2023-02-11T05:35:08.202Z,58.51
2023-02-11T05:37:35.226Z,58.32
2023-02-11T05:40:01.909Z,58.32
2023-02-11T05:42:28.557Z,58.30
2023-02-11T05:44:55.207Z,58.42
2023-02-11T05:47:21.802Z,58.38
2023-02-11T05:49:48.402Z,58.07
2023-02-11T05:52:15.092Z,58.46
2023-02-11T05:54:41.839Z,57.87
2023-02-11T05:57:08.581Z,57.66
2023-02-11T05:59:35.269Z,57.64
2023-02-11T06:02:02.324Z,57.33
2023-02-11T06:04:29.281Z,57.12
2023-02-11T06:06:56.829Z,56.53
2023-02-11T06:09:23.486Z,56.88
2023-02-11T06:11:50.115Z,56.52
2023-02-11T06:14:16.700Z,56.60
2023-02-11T06:16:43.393Z,56.64
2023-02-11T06:19:10.797Z,56.00
2023-02-11T06:21:43.983Z,56.14
2023-02-11T06:24:11.899Z,56.24
2023-02-11T06:26:38.580Z,56.50
2023-02-11T06:29:05.320Z,56.39
2023-02-11T06:31:32.096Z,56.28
2023-02-11T06:33:59.256Z,56.53
2023-02-11T06:36:25.931Z,56.20
2023-02-11T06:38:52.677Z,56.31
2023-02-11T06:41:22.643Z,55.94
2023-02-11T06:43:49.748Z,56.23
2023-02-11T06:46:16.431Z,55.75
2023-02-11T06:48:44.845Z,56.25
2023-02-11T06:51:13.318Z,56.47
2023-02-11T06:53:43.232Z,56.46
2023-02-11T06:56:12.561Z,56.92
2023-02-11T06:58:39.720Z,57.11
2023-02-11T07:01:08.984Z,57.42
2023-02-11T07:03:37.287Z,57.28
2023-02-11T07:06:05.948Z,57.10
2023-02-11T07:08:36.828Z,56.96
2023-02-11T07:11:16.305Z,57.33
2023-02-11T07:13:43.498Z,57.46
2023-02-11T07:16:14.086Z,57.38
2023-02-11T07:18:40.978Z,57.40
2023-02-11T07:21:09.362Z,57.36
2023-02-11T07:23:36.908Z,57.45
2023-02-11T07:26:08.918Z,56.99
2023-02-11T07:28:37.163Z,57.04
2023-02-11T07:31:12.122Z,56.54
2023-02-11T07:33:39.306Z,56.36
2023-02-11T07:36:08.504Z,56.71
2023-02-11T07:38:36.167Z,56.48
2023-02-11T07:41:09.265Z,56.47
2023-02-11T07:43:37.420Z,56.58
2023-02-11T07:46:05.859Z,56.46
2023-02-11T07:48:32.951Z,56.49
2023-02-11T07:51:11.775Z,56.68
2023-02-11T07:53:38.777Z,56.42
2023-02-11T07:56:06.961Z,56.78
2023-02-11T07:58:34.273Z,56.46
2023-02-11T08:01:06.066Z,56.51
2023-02-11T08:03:34.448Z,56.39
2023-02-11T08:06:09.624Z,55.53
2023-02-11T08:08:36.923Z,55.82
2023-02-11T08:11:08.203Z,55.46
2023-02-11T08:13:35.800Z,54.97
2023-02-11T08:16:05.117Z,54.34
2023-02-11T08:18:33.222Z,54.89
2023-02-11T08:21:07.513Z,55.02
2023-02-11T08:23:37.408Z,54.80
2023-02-11T08:26:05.469Z,55.13
2023-02-11T08:28:35.954Z,55.57
2023-02-11T08:31:11.429Z,55.77
2023-02-11T08:33:40.373Z,55.02
2023-02-11T08:36:12.051Z,55.05
2023-02-11T08:38:38.725Z,54.60
2023-02-11T08:41:05.513Z,55.01
2023-02-11T08:43:33.271Z,54.24
2023-02-11T08:46:02.153Z,54.66
2023-02-11T08:48:29.925Z,54.92
2023-02-11T08:50:57.282Z,55.07
2023-02-11T08:53:24.348Z,54.80
2023-02-11T08:55:53.948Z,55.33
2023-02-11T08:58:21.613Z,55.17
2023-02-11T09:00:49.917Z,55.87
2023-02-11T09:03:16.956Z,55.31
2023-02-11T09:05:49.809Z,54.69
2023-02-11T09:08:17.115Z,54.24
2023-02-11T09:10:43.979Z,54.47
2023-02-11T09:13:11.100Z,54.79
2023-02-11T09:15:37.726Z,55.52
2023-02-11T09:18:05.180Z,55.10
2023-02-11T09:20:32.129Z,55.40
2023-02-11T09:22:59.512Z,55.93
2023-02-11T09:25:26.649Z,55.41
2023-02-11T09:27:53.789Z,55.31
2023-02-11T09:30:21.093Z,54.84
2023-02-11T09:32:47.933Z,55.12
2023-02-11T09:35:14.618Z,54.40
2023-02-11T09:37:41.314Z,53.22
2023-02-11T09:40:08.674Z,52.56
2023-02-11T09:42:44.281Z,52.56
2023-02-11T09:45:24.313Z,52.28
2023-02-11T09:47:55.911Z,52.33
2023-02-11T09:50:29.400Z,52.00
2023-02-11T09:53:11.628Z,51.51
2023-02-11T09:55:46.038Z,50.81
2023-02-11T09:58:14.427Z,49.60
2023-02-11T10:00:50.259Z,49.27
2023-02-11T10:03:38.160Z,48.63
2023-02-11T10:06:38.188Z,48.31
2023-02-11T10:09:11.506Z,48.26
2023-02-11T10:12:09.158Z,47.49
2023-02-11T10:14:53.781Z,46.76
2023-02-11T10:17:37.751Z,47.08
2023-02-11T10:20:04.428Z,47.12
2023-02-11T10:22:37.588Z,47.19
2023-02-11T10:25:20.035Z,47.09
2023-02-11T10:27:47.671Z,46.13
2023-02-11T10:30:43.801Z,44.90
2023-02-11T10:33:43.101Z,44.69
2023-02-11T10:36:14.418Z,42.98
2023-02-11T10:38:41.168Z,41.96
2023-02-11T10:41:16.020Z,41.88
2023-02-11T10:43:43.524Z,41.77
2023-02-11T10:46:17.198Z,41.72
2023-02-11T10:48:52.697Z,40.86
2023-02-11T10:51:25.438Z,39.94
2023-02-11T10:54:04.161Z,40.21
2023-02-11T10:56:34.389Z,41.12
2023-02-11T10:59:05.163Z,41.19
2023-02-11T11:01:48.580Z,40.22
2023-02-11T11:04:30.446Z,39.59
2023-02-11T11:07:09.574Z,40.58
2023-02-11T11:09:59.636Z,41.49
2023-02-11T11:12:47.308Z,41.63
2023-02-11T11:15:32.974Z,41.12
2023-02-11T11:18:21.349Z,41.57
2023-02-11T11:21:01.323Z,40.66
2023-02-11T11:23:30.330Z,41.26
2023-02-11T11:26:05.124Z,41.25
2023-02-11T11:28:55.919Z,40.17
2023-02-11T11:31:30.462Z,37.37
2023-02-11T11:33:59.605Z,35.30
2023-02-11T11:36:36.044Z,33.49
2023-02-11T11:39:17.773Z,30.02
2023-02-11T11:41:57.833Z,28.15
2023-02-11T11:44:26.135Z,29.22
2023-02-11T11:47:11.049Z,31.29
2023-02-11T11:49:41.858Z,32.33
2023-02-11T11:52:48.921Z,33.36
2023-02-11T11:55:26.888Z,31.75
2023-02-11T11:57:53.740Z,30.88
2023-02-11T12:01:00.124Z,31.46
2023-02-11T12:03:42.062Z,31.18
2023-02-11T12:06:39.578Z,30.00
2023-02-11T12:09:16.082Z,28.32
2023-02-11T12:12:04.567Z,27.44
2023-02-11T12:14:39.351Z,27.07
2023-02-11T12:17:17.642Z,27.64
2023-02-11T12:19:56.326Z,27.18
2023-02-11T12:22:31.723Z,28.38
2023-02-11T12:25:09.938Z,29.29
2023-02-11T12:27:52.713Z,30.29
2023-02-11T12:30:28.716Z,30.48
2023-02-11T12:33:23.350Z,32.89
2023-02-11T12:35:55.813Z,33.83
2023-02-11T12:38:48.878Z,34.79
2023-02-11T12:42:03.682Z,34.21
2023-02-11T12:44:36.494Z,35.55
2023-02-11T12:47:13.027Z,37.43
2023-02-11T12:50:13.036Z,39.34
2023-02-11T12:52:57.809Z,39.93
2023-02-11T12:55:28.203Z,41.68
2023-02-11T12:57:59.359Z,42.58
2023-02-11T13:00:37.218Z,43.89
2023-02-11T13:03:09.827Z,44.63
2023-02-11T13:06:01.842Z,44.99
2023-02-11T13:08:34.738Z,45.81
2023-02-11T13:11:07.984Z,46.26
2023-02-11T13:13:46.216Z,46.66
2023-02-11T13:16:24.036Z,47.06
2023-02-11T13:18:55.770Z,46.88
2023-02-11T13:21:32.079Z,46.56
2023-02-11T13:24:13.450Z,46.83
2023-02-11T13:26:43.252Z,47.19
2023-02-11T13:29:30.073Z,46.82
2023-02-11T13:32:10.073Z,46.63
2023-02-11T13:34:43.008Z,47.41
2023-02-11T13:37:21.684Z,48.44
2023-02-11T13:40:04.870Z,48.10
2023-02-11T13:42:34.311Z,48.59
2023-02-11T13:45:01.499Z,48.47
2023-02-11T13:47:37.407Z,48.34
2023-02-11T13:50:07.310Z,49.38
2023-02-11T13:52:37.960Z,49.50
2023-02-11T13:55:21.574Z,50.07
2023-02-11T13:58:08.206Z,49.36
2023-02-11T14:00:34.855Z,49.82
2023-02-11T14:03:29.381Z,49.56
2023-02-11T14:06:27.116Z,50.06
2023-02-11T14:09:09.203Z,49.63
2023-02-11T14:11:56.187Z,49.80
2023-02-11T14:14:31.661Z,49.99
2023-02-11T14:17:01.550Z,50.04
2023-02-11T14:19:37.436Z,50.13
2023-02-11T14:22:05.028Z,50.51
2023-02-11T14:24:37.578Z,50.82
2023-02-11T14:27:21.345Z,51.30
2023-02-11T14:30:08.331Z,51.34
2023-02-11T14:33:00.633Z,51.43
2023-02-11T14:35:41.816Z,51.53
2023-02-11T14:38:59.427Z,51.08
2023-02-11T14:41:47.095Z,51.38
2023-02-11T14:44:25.183Z,51.37
2023-02-11T14:46:53.981Z,51.71
2023-02-11T14:49:33.613Z,51.68
2023-02-11T14:52:20.106Z,51.74
2023-02-11T14:54:50.995Z,52.26
2023-02-11T14:57:20.178Z,51.85
2023-02-11T15:00:21.076Z,52.42
2023-02-11T15:02:48.243Z,52.68
2023-02-11T15:05:29.011Z,53.15
2023-02-11T15:08:02.076Z,53.51
2023-02-11T15:10:49.274Z,53.53
2023-02-11T15:13:21.576Z,53.52
2023-02-11T15:15:52.314Z,53.57
2023-02-11T15:18:25.731Z,54.32
2023-02-11T15:20:53.141Z,54.49
2023-02-11T15:23:24.918Z,54.81
2023-02-11T15:25:55.818Z,54.88
2023-02-11T15:28:31.737Z,55.02
2023-02-11T15:31:04.557Z,55.25
2023-02-11T15:33:32.659Z,55.30
2023-02-11T15:36:01.782Z,55.50
2023-02-11T15:38:31.786Z,55.27
2023-02-11T15:41:02.022Z,55.50
2023-02-11T15:43:46.961Z,55.43
2023-02-11T15:46:18.716Z,55.46
2023-02-11T15:48:49.173Z,55.72
2023-02-11T15:51:37.922Z,55.93
2023-02-11T15:54:22.778Z,56.15
2023-02-11T15:56:52.456Z,56.41
2023-02-11T15:59:22.464Z,56.59
2023-02-11T16:01:49.834Z,56.35
2023-02-11T16:04:19.693Z,56.57
2023-02-11T16:06:50.549Z,57.12
2023-02-11T16:09:17.388Z,56.91
2023-02-11T16:11:47.264Z,57.10
2023-02-11T16:14:21.869Z,57.28
2023-02-11T16:16:51.814Z,57.58
2023-02-11T16:19:23.589Z,57.93
2023-02-11T16:21:53.553Z,57.69
2023-02-11T16:24:33.948Z,57.68
2023-02-11T16:27:03.690Z,58.02
2023-02-11T16:29:33.521Z,58.13
2023-02-11T16:32:09.097Z,58.36
2023-02-11T16:34:37.091Z,58.46
2023-02-11T16:37:05.579Z,59.17
2023-02-11T16:39:33.351Z,58.86
2023-02-11T16:42:01.310Z,59.21
2023-02-11T16:44:28.938Z,58.89
2023-02-11T16:46:59.181Z,59.20
2023-02-11T16:49:42.203Z,59.31
2023-02-11T16:52:14.329Z,59.28
2023-02-11T16:54:41.428Z,59.09
2023-02-11T16:57:20.797Z,59.07
2023-02-11T16:59:48.822Z,59.65
2023-02-11T17:02:16.976Z,59.73
2023-02-11T17:04:44.589Z,59.63
2023-02-11T17:07:11.944Z,59.66
2023-02-11T17:09:38.914Z,59.69
2023-02-11T17:12:06.154Z,59.54
2023-02-11T17:14:33.107Z,59.67
2023-02-11T17:17:00.121Z,59.63
2023-02-11T17:19:27.338Z,59.31
2023-02-11T17:21:54.196Z,59.67
2023-02-11T17:24:22.226Z,59.58
2023-02-11T17:26:49.603Z,59.78
2023-02-11T17:29:19.745Z,59.51
2023-02-11T17:31:46.830Z,59.86
2023-02-11T17:34:14.168Z,59.99
2023-02-11T17:36:43.880Z,59.79
2023-02-11T17:39:10.948Z,59.55
2023-02-11T17:41:38.853Z,59.91
2023-02-11T17:44:06.891Z,59.66
2023-02-11T17:46:36.815Z,59.93
2023-02-11T17:49:04.386Z,60.01
2023-02-11T17:51:34.016Z,59.89
2023-02-11T17:54:04.177Z,60.03
2023-02-11T17:56:36.316Z,60.22
2023-02-11T17:59:04.226Z,60.43
2023-02-11T18:01:32.815Z,60.35
2023-02-11T18:03:59.594Z,59.93
2023-02-11T18:06:26.893Z,59.79
2023-02-11T18:08:56.837Z,59.99
2023-02-11T18:11:25.863Z,60.07
2023-02-11T18:13:54.483Z,60.23
2023-02-11T18:16:22.208Z,60.37
2023-02-11T18:18:49.722Z,60.47
2023-02-11T18:21:19.633Z,60.65
2023-02-11T18:23:47.202Z,60.62
2023-02-11T18:26:15.529Z,60.72
2023-02-11T18:28:45.291Z,60.50
2023-02-11T18:31:12.550Z,60.93
2023-02-11T18:33:40.463Z,60.48
2023-02-11T18:36:10.853Z,60.99
2023-02-11T18:38:38.350Z,60.53
2023-02-11T18:41:05.386Z,61.24
2023-02-11T18:43:33.566Z,61.09
2023-02-11T18:46:01.901Z,60.79
2023-02-11T18:48:28.884Z,61.04
2023-02-11T18:50:55.738Z,61.00
2023-02-11T18:53:24.707Z,60.67
2023-02-11T18:55:52.622Z,60.49
2023-02-11T18:58:21.143Z,60.94
2023-02-11T19:00:49.206Z,60.68
2023-02-11T19:03:16.348Z,61.14
2023-02-11T19:05:45.797Z,60.95
2023-02-11T19:08:13.438Z,60.85
2023-02-11T19:10:45.213Z,60.97
2023-02-11T19:13:12.087Z,61.05
2023-02-11T19:15:43.047Z,61.18
2023-02-11T19:18:10.752Z,61.03
2023-02-11T19:20:42.331Z,61.20
2023-02-11T19:23:10.039Z,61.31
2023-02-11T19:25:37.314Z,61.26
2023-02-11T19:28:04.039Z,61.42
2023-02-11T19:30:30.854Z,61.62
2023-02-11T19:32:57.785Z,61.57
2023-02-11T19:35:25.732Z,61.41
2023-02-11T19:37:52.447Z,61.68
2023-02-11T19:40:21.150Z,61.59
2023-02-11T19:42:47.902Z,62.02
2023-02-11T19:45:14.689Z,61.88
2023-02-11T19:47:41.368Z,61.88
2023-02-11T19:50:08.850Z,62.19
2023-02-11T19:52:38.254Z,62.19
2023-02-11T19:55:05.281Z,62.31
2023-02-11T19:57:31.974Z,62.17
2023-02-11T19:59:58.787Z,62.72
2023-02-11T20:02:25.527Z,63.01
2023-02-11T20:04:52.258Z,62.65
2023-02-11T20:07:18.913Z,62.69
2023-02-11T20:09:45.555Z,62.49
2023-02-11T20:12:12.331Z,62.81
2023-02-11T20:14:39.005Z,62.94
2023-02-11T20:17:05.604Z,63.01
2023-02-11T20:19:32.322Z,62.80
2023-02-11T20:21:59.056Z,62.93
2023-02-11T20:24:26.035Z,63.21
2023-02-11T20:26:55.743Z,63.23
2023-02-11T20:29:23.648Z,62.82
2023-02-11T20:31:50.889Z,63.16
2023-02-11T20:34:18.171Z,63.08
2023-02-11T20:36:51.635Z,63.27
2023-02-11T20:39:19.224Z,63.40
2023-02-11T20:41:46.338Z,63.37
2023-02-11T20:44:13.505Z,63.54
2023-02-11T20:46:42.934Z,63.26
2023-02-11T20:49:21.405Z,63.35
2023-02-11T20:51:49.200Z,63.15
2023-02-11T20:54:18.386Z,63.37
2023-02-11T20:56:48.084Z,63.40
2023-02-11T20:59:16.587Z,63.02
2023-02-11T21:01:46.992Z,63.50
2023-02-11T21:04:20.989Z,63.13
2023-02-11T21:06:52.020Z,63.23
2023-02-11T21:09:21.461Z,63.35
2023-02-11T21:11:51.516Z,63.58
2023-02-11T21:14:19.392Z,63.28
2023-02-11T21:16:47.184Z,63.44
2023-02-11T21:19:14.622Z,63.50
2023-02-11T21:21:41.740Z,63.61
2023-02-11T21:24:09.653Z,63.52
2023-02-11T21:26:37.307Z,63.37
2023-02-11T21:29:05.719Z,63.92
2023-02-11T21:31:34.715Z,63.73
2023-02-11T21:34:01.521Z,64.00
2023-02-11T21:36:29.630Z,63.98
2023-02-11T21:38:56.823Z,63.78
2023-02-11T21:41:24.721Z,63.48
2023-02-11T21:43:52.251Z,64.11
2023-02-11T21:46:20.604Z,63.88
2023-02-11T21:48:48.059Z,64.04
2023-02-11T21:51:18.587Z,63.97
2023-02-11T21:53:45.879Z,64.38
2023-02-11T21:56:15.610Z,64.49
2023-02-11T21:58:43.048Z,64.01
2023-02-11T22:01:18.758Z,64.29
2023-02-11T22:03:46.408Z,63.82
2023-02-11T22:06:16.493Z,64.29
2023-02-11T22:08:43.376Z,64.04
2023-02-11T22:11:12.321Z,64.05
2023-02-11T22:13:40.364Z,64.02
2023-02-11T22:16:10.722Z,64.46
2023-02-11T22:18:38.439Z,64.32
2023-02-11T22:21:10.991Z,64.09
2023-02-11T22:23:39.058Z,64.41
2023-02-11T22:26:08.336Z,64.73
2023-02-11T22:28:36.996Z,63.90
2023-02-11T22:31:04.000Z,64.08
2023-02-11T22:33:31.060Z,64.05
2023-02-11T22:36:02.596Z,63.92
2023-02-11T22:38:31.125Z,64.51
2023-02-11T22:41:00.396Z,64.17
2023-02-11T22:43:28.090Z,64.19
2023-02-11T22:45:56.437Z,64.13
2023-02-11T22:48:23.366Z,63.85
2023-02-11T22:50:50.080Z,63.88
2023-02-11T22:53:16.807Z,64.05
2023-02-11T22:55:43.420Z,64.14
2023-02-11T22:58:10.073Z,64.03
2023-02-11T23:00:39.378Z,64.16
2023-02-11T23:03:07.814Z,64.20
2023-02-11T23:05:39.562Z,64.42
2023-02-11T23:08:08.673Z,64.33
2023-02-11T23:10:37.004Z,64.18
2023-02-11T23:13:04.645Z,64.01
2023-02-11T23:15:31.573Z,64.65
2023-02-11T23:17:59.070Z,64.57
2023-02-11T23:20:26.044Z,64.21
2023-02-11T23:22:52.746Z,63.84
2023-02-11T23:25:19.450Z,63.76
2023-02-11T23:27:46.143Z,63.68
2023-02-11T23:30:13.598Z,64.25
2023-02-11T23:32:40.802Z,64.06
2023-02-11T23:35:07.715Z,64.19
2023-02-11T23:37:34.452Z,64.04
2023-02-11T23:40:01.113Z,64.22
2023-02-11T23:42:29.064Z,64.26
2023-02-11T23:44:55.720Z,64.54
2023-02-11T23:47:22.320Z,64.73
2023-02-11T23:49:49.025Z,64.28
2023-02-11T23:52:15.718Z,64.30
2023-02-11T23:54:43.337Z,64.73
2023-02-11T23:57:10.083Z,64.94
2023-02-11T23:59:36.759Z,64.60
